CN-0063 weather

Guiping Mengshu Air Base
Guangxi Autonomous Region, China

Public forecast

Using degrees Celsius for public forecast. Weather courtesy of forecast.io.

METAR (pilot weather report)

Closest report is Nanning Wuxu Airport, 110.4 nm (204.5 km) WSW. Retrieved 2019/05/19 22:00 UTC (40 minutes ago):

ZGNN 192200Z 09003MPS 6000 SCT010 28/26 Q1006 NOSIG

TAF (pilot weather forecast)

Forecast is more than 12 hours old.

Closest forecast is Liuzhou Bailian Airport, 62.6 nm (116.0 km) NNW. Retrieved 2009/10/18 09:44 UTC (10 years ago):

TAF ZGZH 180944Z 1812/1912 VRB01MPS 7000 NSC BECMG 1815/1816 5000 BR BECMG 1821/1822 3000 BR BECMG 1902/1903 33003MPS 5000 HZ BKN036 TX30/1907Z TN18/1823Z